createdAt,value
2022-09-23T00:01:05.270Z,9.74
2022-09-23T00:03:33.329Z,9.75
2022-09-23T00:06:01.602Z,9.76
2022-09-23T00:08:29.364Z,9.73
2022-09-23T00:10:56.824Z,9.67
2022-09-23T00:13:24.995Z,9.59
2022-09-23T00:15:52.276Z,9.51
2022-09-23T00:18:20.931Z,9.43
2022-09-23T00:20:49.313Z,9.41
2022-09-23T00:23:16.361Z,9.43
2022-09-23T00:25:43.357Z,9.41
2022-09-23T00:28:10.451Z,9.38
2022-09-23T00:30:37.543Z,9.33
2022-09-23T00:33:04.546Z,9.28
2022-09-23T00:35:31.592Z,9.23
2022-09-23T00:37:58.666Z,9.24
2022-09-23T00:40:26.434Z,9.27
2022-09-23T00:42:53.658Z,9.28
2022-09-23T00:45:20.807Z,9.27
2022-09-23T00:47:51.297Z,9.23
2022-09-23T00:50:38.452Z,9.21
2022-09-23T00:53:10.703Z,9.25
2022-09-23T00:55:55.484Z,9.30
2022-09-23T00:58:26.929Z,9.31
2022-09-23T01:00:54.779Z,9.29
2022-09-23T01:03:23.281Z,9.25
2022-09-23T01:05:50.330Z,9.21
2022-09-23T01:08:19.835Z,9.20
2022-09-23T01:11:06.387Z,9.22
2022-09-23T01:13:44.461Z,9.21
2022-09-23T01:16:32.879Z,9.18
2022-09-23T01:19:23.903Z,9.14
2022-09-23T01:22:05.285Z,9.11
2022-09-23T01:25:08.841Z,9.16
2022-09-23T01:27:48.019Z,9.23
2022-09-23T01:30:44.917Z,9.25
2022-09-23T01:33:24.610Z,9.24
2022-09-23T01:36:34.160Z,9.24
2022-09-23T01:39:09.498Z,9.23
2022-09-23T01:42:17.827Z,9.30
2022-09-23T01:44:50.978Z,9.38
2022-09-23T01:47:19.581Z,9.40
2022-09-23T01:50:03.835Z,9.39
2022-09-23T01:52:33.082Z,9.36
2022-09-23T01:55:28.236Z,9.34
2022-09-23T01:58:15.152Z,9.40
2022-09-23T02:00:49.337Z,9.46
2022-09-23T02:03:27.942Z,9.48
2022-09-23T02:09:39.083Z,9.44
2022-09-23T02:16:13.792Z,9.47
2022-09-23T02:19:02.696Z,9.52
2022-09-23T02:21:35.018Z,9.50
2022-09-23T02:24:15.441Z,9.48
2022-09-23T02:27:01.856Z,9.44
2022-09-23T02:29:36.985Z,9.40
2022-09-23T02:32:13.030Z,9.43
2022-09-23T02:34:42.743Z,9.49
2022-09-23T02:37:36.108Z,9.49
2022-09-23T02:40:18.571Z,9.49
2022-09-23T02:43:07.069Z,9.46
2022-09-23T02:45:34.286Z,9.43
2022-09-23T02:48:07.407Z,9.48
2022-09-23T02:50:34.555Z,9.52
2022-09-23T02:53:01.705Z,9.53
2022-09-23T02:55:32.647Z,9.52
2022-09-23T02:58:03.584Z,9.51
2022-09-23T03:00:58.980Z,9.49
2022-09-23T03:03:38.840Z,9.53
2022-09-23T03:06:15.418Z,9.59
2022-09-23T03:09:08.473Z,9.60
2022-09-23T03:11:37.154Z,9.58
2022-09-23T03:14:25.806Z,9.55
2022-09-23T03:17:03.787Z,9.54
2022-09-23T03:19:49.086Z,9.58
2022-09-23T03:22:46.445Z,9.64
2022-09-23T03:25:16.260Z,9.66
2022-09-23T03:27:43.813Z,9.65
2022-09-23T03:30:11.486Z,9.63
2022-09-23T03:32:38.931Z,9.60
2022-09-23T03:35:06.598Z,9.61
2022-09-23T03:37:40.500Z,9.63
2022-09-23T03:40:12.585Z,9.63
2022-09-23T03:42:39.720Z,9.60
2022-09-23T03:45:09.829Z,9.56
2022-09-23T03:47:39.757Z,9.51
2022-09-23T03:50:07.638Z,9.46
2022-09-23T03:52:34.666Z,9.46
2022-09-23T03:55:01.724Z,9.48
2022-09-23T03:57:28.819Z,9.48
2022-09-23T03:59:55.810Z,9.46
2022-09-23T04:02:22.930Z,9.42
2022-09-23T04:04:50.309Z,9.39
2022-09-23T04:07:17.562Z,9.39
2022-09-23T04:09:44.710Z,9.43
2022-09-23T04:12:13.413Z,9.46
2022-09-23T04:14:40.908Z,9.43
2022-09-23T04:17:08.410Z,9.40
2022-09-23T04:19:35.500Z,9.38
2022-09-23T04:22:02.515Z,9.40
2022-09-23T04:24:29.684Z,9.46
2022-09-23T04:26:56.907Z,9.47
2022-09-23T04:29:24.571Z,9.47
2022-09-23T04:31:56.611Z,9.45
2022-09-23T04:34:23.890Z,9.43
2022-09-23T04:36:51.144Z,9.42
2022-09-23T04:39:18.504Z,9.46
2022-09-23T04:41:45.946Z,9.54
2022-09-23T04:44:13.710Z,9.58
2022-09-23T04:46:47.541Z,9.61
2022-09-23T04:49:15.796Z,9.60
2022-09-23T04:51:43.904Z,9.59
2022-09-23T04:54:11.983Z,9.59
2022-09-23T04:56:40.026Z,9.65
2022-09-23T04:59:07.752Z,9.74
2022-09-23T05:01:36.658Z,9.80
2022-09-23T05:04:06.161Z,9.85
2022-09-23T05:06:34.706Z,9.88
2022-09-23T05:09:02.151Z,9.91
2022-09-23T05:11:30.174Z,9.94
2022-09-23T05:13:57.450Z,10.04
2022-09-23T05:16:24.860Z,10.16
2022-09-23T05:18:52.849Z,10.25
2022-09-23T05:21:24.004Z,10.30
2022-09-23T05:23:54.387Z,10.35
2022-09-23T05:26:22.493Z,10.39
2022-09-23T05:28:49.450Z,10.42
2022-09-23T05:31:20.332Z,10.51
2022-09-23T05:33:52.270Z,10.63
2022-09-23T05:36:21.438Z,10.71
2022-09-23T05:38:50.197Z,10.77
2022-09-23T05:41:18.403Z,10.81
2022-09-23T05:43:45.545Z,10.85
2022-09-23T05:46:13.586Z,10.88
2022-09-23T05:48:41.318Z,10.98
2022-09-23T05:51:13.052Z,11.09
2022-09-23T05:53:40.796Z,11.15
2022-09-23T05:56:08.204Z,11.20
2022-09-23T05:58:35.812Z,11.24
2022-09-23T06:01:09.719Z,11.28
2022-09-23T06:03:36.876Z,11.31
2022-09-23T06:06:04.018Z,11.42
2022-09-23T06:08:32.190Z,11.52
2022-09-23T06:10:59.377Z,11.59
2022-09-23T06:13:32.753Z,11.63
2022-09-23T06:16:00.132Z,11.65
2022-09-23T06:18:27.475Z,11.68
2022-09-23T06:20:54.495Z,11.70
2022-09-23T06:23:25.437Z,11.72
2022-09-23T06:25:54.526Z,11.80
2022-09-23T06:28:21.830Z,11.88
2022-09-23T06:30:49.663Z,11.93
2022-09-23T06:33:19.643Z,11.95
2022-09-23T06:35:59.906Z,11.96
2022-09-23T06:38:27.375Z,11.97
2022-09-23T06:40:55.853Z,11.99
2022-09-23T06:43:23.548Z,12.01
2022-09-23T06:45:57.465Z,12.09
2022-09-23T06:48:25.085Z,12.19
2022-09-23T06:50:53.973Z,12.26
2022-09-23T06:53:24.253Z,12.33
2022-09-23T06:56:11.605Z,12.38
2022-09-23T06:58:39.206Z,12.44
2022-09-23T07:01:11.361Z,12.49
2022-09-23T07:03:38.533Z,12.55
2022-09-23T07:06:06.188Z,12.67
2022-09-23T07:08:36.072Z,12.82
2022-09-23T07:11:07.349Z,12.94
2022-09-23T07:13:34.496Z,13.04
2022-09-23T07:16:02.397Z,13.13
2022-09-23T07:18:36.227Z,13.18
2022-09-23T07:21:15.703Z,13.17
2022-09-23T07:23:50.278Z,13.15
2022-09-23T07:26:18.271Z,13.14
2022-09-23T07:28:45.845Z,13.12
2022-09-23T07:31:23.861Z,13.10
2022-09-23T07:34:01.469Z,13.17
2022-09-23T07:36:29.927Z,13.25
2022-09-23T07:39:02.589Z,13.32
2022-09-23T07:41:36.498Z,13.36
2022-09-23T07:44:03.750Z,13.39
2022-09-23T07:46:32.972Z,13.40
2022-09-23T07:49:00.523Z,13.42
2022-09-23T07:51:34.772Z,13.44
2022-09-23T07:54:03.022Z,13.47
2022-09-23T07:56:30.378Z,13.48
2022-09-23T07:59:00.590Z,13.47
2022-09-23T08:01:36.049Z,13.50
2022-09-23T08:04:07.082Z,13.57
2022-09-23T08:06:34.235Z,13.63
2022-09-23T08:09:01.787Z,13.66
2022-09-23T08:11:28.959Z,13.67
2022-09-23T08:13:56.603Z,13.67
2022-09-23T08:16:23.818Z,13.65
2022-09-23T08:18:51.132Z,13.61
2022-09-23T08:21:20.324Z,13.54
2022-09-23T08:23:49.075Z,13.45
2022-09-23T08:26:21.550Z,13.39
2022-09-23T08:28:55.270Z,13.32
2022-09-23T08:31:22.936Z,13.25
2022-09-23T08:33:59.466Z,13.29
2022-09-23T08:36:27.266Z,13.37
2022-09-23T08:38:55.440Z,13.42
2022-09-23T08:41:59.229Z,13.47
2022-09-23T08:44:37.867Z,13.53
2022-09-23T08:47:24.059Z,13.56
2022-09-23T08:49:56.537Z,13.59
2022-09-23T08:52:33.824Z,13.62
2022-09-23T08:55:02.244Z,13.65
2022-09-23T08:57:39.096Z,13.70
2022-09-23T09:00:06.974Z,13.80
2022-09-23T09:02:34.869Z,14.00
2022-09-23T09:05:06.280Z,14.33
2022-09-23T09:07:37.419Z,14.78
2022-09-23T09:10:15.426Z,15.19
2022-09-23T09:12:51.086Z,15.46
2022-09-23T09:15:24.699Z,15.62
2022-09-23T09:17:59.504Z,15.73
2022-09-23T09:20:49.221Z,15.82
2022-09-23T09:23:23.036Z,16.01
2022-09-23T09:25:54.746Z,16.29
2022-09-23T09:28:26.786Z,16.67
2022-09-23T09:31:00.526Z,17.03
2022-09-23T09:33:32.475Z,17.37
2022-09-23T09:36:21.027Z,17.62
2022-09-23T09:38:48.007Z,17.81
2022-09-23T09:41:17.950Z,17.82
2022-09-23T09:45:46.283Z,17.63
2022-09-23T09:48:33.253Z,17.17
2022-09-23T09:51:30.857Z,16.71
2022-09-23T09:54:24.601Z,16.25
2022-09-23T09:56:52.038Z,15.84
2022-09-23T09:59:24.914Z,15.52
2022-09-23T10:02:12.644Z,15.24
2022-09-23T10:04:40.200Z,15.02
2022-09-23T10:07:18.493Z,14.90
2022-09-23T10:10:22.065Z,14.86
2022-09-23T10:13:38.943Z,14.98
2022-09-23T10:16:07.042Z,15.12
2022-09-23T10:18:48.836Z,15.20
2022-09-23T10:21:35.881Z,15.26
2022-09-23T10:27:14.628Z,15.39
2022-09-23T10:29:47.878Z,15.47
2022-09-23T10:32:40.807Z,15.51
2022-09-23T10:35:11.577Z,15.49
2022-09-23T10:37:42.375Z,15.40
2022-09-23T10:40:42.618Z,15.28
2022-09-23T10:43:52.043Z,15.11
2022-09-23T10:46:46.025Z,14.90
2022-09-23T10:50:03.963Z,14.73
2022-09-23T10:52:48.727Z,14.54
2022-09-23T10:55:25.167Z,14.41
2022-09-23T10:58:19.900Z,14.37
2022-09-23T11:01:27.312Z,14.43
2022-09-23T11:04:34.874Z,14.56
2022-09-23T11:07:27.258Z,14.76
2022-09-23T11:10:45.643Z,14.95
2022-09-23T11:13:24.725Z,15.03
2022-09-23T11:16:34.574Z,15.00
2022-09-23T11:19:25.583Z,14.87
2022-09-23T11:22:08.470Z,14.70
2022-09-23T11:25:14.696Z,14.53
2022-09-23T11:28:04.071Z,14.30
2022-09-23T11:30:41.486Z,14.08
2022-09-23T11:33:37.963Z,13.88
2022-09-23T11:36:07.160Z,13.69
2022-09-23T11:38:45.718Z,13.57
2022-09-23T11:41:17.947Z,13.44
2022-09-23T11:43:53.000Z,13.31
2022-09-23T11:46:36.517Z,13.24
2022-09-23T11:49:17.185Z,13.20
2022-09-23T11:51:47.918Z,13.14
2022-09-23T11:54:21.360Z,13.09
2022-09-23T11:56:52.141Z,13.07
2022-09-23T11:59:34.810Z,13.04
2022-09-23T12:02:20.811Z,13.02
2022-09-23T12:04:57.700Z,13.04
2022-09-23T12:07:48.329Z,13.19
2022-09-23T12:10:15.477Z,13.44
2022-09-23T12:12:57.222Z,13.70
2022-09-23T12:15:39.678Z,14.01
2022-09-23T12:18:34.785Z,14.24
2022-09-23T12:21:27.419Z,14.38
2022-09-23T12:24:18.965Z,14.47
2022-09-23T12:26:53.684Z,14.49
2022-09-23T12:29:23.556Z,14.47
2022-09-23T12:31:53.207Z,14.44
2022-09-23T12:34:21.682Z,14.43
2022-09-23T12:36:48.729Z,14.45
2022-09-23T12:39:26.120Z,14.48
2022-09-23T12:41:58.802Z,14.59
2022-09-23T12:44:33.161Z,14.70
2022-09-23T12:47:25.810Z,14.78
2022-09-23T12:50:02.130Z,14.86
2022-09-23T12:52:33.043Z,14.95
2022-09-23T12:55:27.009Z,14.99
2022-09-23T12:57:55.223Z,14.96
2022-09-23T13:00:29.832Z,14.88
2022-09-23T13:03:21.272Z,14.78
2022-09-23T13:06:11.173Z,14.66
2022-09-23T13:08:39.626Z,14.52
2022-09-23T13:11:39.248Z,14.41
2022-09-23T13:14:27.395Z,14.36
2022-09-23T13:16:57.364Z,14.29
2022-09-23T13:19:28.041Z,14.18
2022-09-23T13:21:55.181Z,14.07
2022-09-23T13:24:25.226Z,13.95
2022-09-23T13:26:57.580Z,13.84
2022-09-23T13:29:28.647Z,13.70
2022-09-23T13:31:58.137Z,13.55
2022-09-23T13:34:27.369Z,13.45
2022-09-23T13:36:54.563Z,13.37
2022-09-23T13:39:25.308Z,13.31
2022-09-23T13:41:53.838Z,13.26
2022-09-23T13:44:21.134Z,13.26
2022-09-23T13:46:51.569Z,13.28
2022-09-23T13:49:26.388Z,13.32
2022-09-23T13:51:54.344Z,13.44
2022-09-23T13:54:54.924Z,13.59
2022-09-23T13:57:34.157Z,13.71
2022-09-23T14:00:21.880Z,13.73
2022-09-23T14:02:49.009Z,13.72
2022-09-23T14:05:27.358Z,13.70
2022-09-23T14:07:54.783Z,13.66
2022-09-23T14:10:29.784Z,13.58
2022-09-23T14:13:01.325Z,13.47
2022-09-23T14:15:28.511Z,13.36
2022-09-23T14:18:02.423Z,13.23
2022-09-23T14:20:29.394Z,13.16
2022-09-23T14:23:07.082Z,13.12
2022-09-23T14:25:34.521Z,13.03
2022-09-23T14:28:01.695Z,12.93
2022-09-23T14:30:29.024Z,12.83
2022-09-23T14:32:56.607Z,12.72
2022-09-23T14:35:29.788Z,12.61
2022-09-23T14:38:16.286Z,12.49
2022-09-23T14:41:14.146Z,12.43
2022-09-23T14:44:07.074Z,12.40
2022-09-23T14:46:36.225Z,12.37
2022-09-23T14:49:13.705Z,12.32
2022-09-23T14:52:07.160Z,12.26
2022-09-23T14:54:40.459Z,12.20
2022-09-23T14:57:23.580Z,12.15
2022-09-23T15:00:13.576Z,12.15
2022-09-23T15:02:45.191Z,12.17
2022-09-23T15:05:15.812Z,12.15
2022-09-23T15:11:15.121Z,12.08
2022-09-23T15:13:44.708Z,12.04
2022-09-23T15:16:28.400Z,12.06
2022-09-23T15:19:28.483Z,12.10
2022-09-23T15:22:18.992Z,12.08
2022-09-23T15:25:17.517Z,12.03
2022-09-23T15:27:56.316Z,11.93
2022-09-23T15:30:23.777Z,11.85
2022-09-23T15:32:51.129Z,11.77
2022-09-23T15:35:20.169Z,11.68
2022-09-23T15:37:54.813Z,11.62
2022-09-23T15:40:30.127Z,11.60
2022-09-23T15:42:58.985Z,11.56
2022-09-23T15:45:40.897Z,11.51
2022-09-23T15:48:18.066Z,11.44
2022-09-23T15:50:48.510Z,11.38
2022-09-23T15:53:28.599Z,11.30
2022-09-23T15:55:59.002Z,11.29
2022-09-23T15:58:40.078Z,11.31
2022-09-23T16:01:07.994Z,11.27
2022-09-23T16:03:35.095Z,11.21
2022-09-23T16:06:03.459Z,11.14
2022-09-23T16:08:33.044Z,11.05
2022-09-23T16:11:00.545Z,10.95
2022-09-23T16:13:27.894Z,10.91
2022-09-23T16:15:55.041Z,10.90
2022-09-23T16:18:22.090Z,10.85
2022-09-23T16:20:49.687Z,10.78
2022-09-23T16:23:34.905Z,10.69
2022-09-23T16:26:24.496Z,10.60
2022-09-23T16:28:53.173Z,10.50
2022-09-23T16:31:20.501Z,10.49
2022-09-23T16:33:48.402Z,10.48
2022-09-23T16:36:21.695Z,10.45
2022-09-23T16:38:53.463Z,10.40
2022-09-23T16:41:20.755Z,10.33
2022-09-23T16:43:51.030Z,10.27
2022-09-23T16:46:18.480Z,10.21
2022-09-23T16:48:52.138Z,10.21
2022-09-23T16:51:21.702Z,10.22
2022-09-23T16:53:52.127Z,10.19
2022-09-23T16:56:25.711Z,10.13
2022-09-23T16:58:55.125Z,10.06
2022-09-23T17:01:45.849Z,9.99
2022-09-23T17:04:13.694Z,9.99
2022-09-23T17:06:44.891Z,10.04
2022-09-23T17:09:12.398Z,10.06
2022-09-23T17:11:42.198Z,10.08
2022-09-23T17:14:10.687Z,10.08
2022-09-23T17:16:37.806Z,10.08
2022-09-23T17:19:11.042Z,10.13
2022-09-23T17:21:43.600Z,10.21
2022-09-23T17:24:14.746Z,10.25
2022-09-23T17:26:41.900Z,10.25
2022-09-23T17:29:09.826Z,10.24
2022-09-23T17:31:46.882Z,10.24
2022-09-23T17:34:14.103Z,10.28
2022-09-23T17:36:47.290Z,10.34
2022-09-23T17:39:14.445Z,10.36
2022-09-23T17:41:43.757Z,10.35
2022-09-23T17:44:16.170Z,10.33
2022-09-23T17:46:49.621Z,10.30
2022-09-23T17:49:27.308Z,10.33
2022-09-23T17:52:07.559Z,10.41
2022-09-23T17:54:40.445Z,10.44
2022-09-23T17:57:07.727Z,10.42
2022-09-23T17:59:34.848Z,10.40
2022-09-23T18:02:01.961Z,10.38
2022-09-23T18:04:41.707Z,10.42
2022-09-23T18:07:10.734Z,10.48
2022-09-23T18:09:37.780Z,10.49
2022-09-23T18:12:04.898Z,10.48
2022-09-23T18:14:32.008Z,10.46
2022-09-23T18:17:04.040Z,10.44
2022-09-23T18:19:30.997Z,10.47
2022-09-23T18:21:58.243Z,10.52
2022-09-23T18:24:32.334Z,10.54
2022-09-23T18:27:00.172Z,10.52
2022-09-23T18:29:27.674Z,10.48
2022-09-23T18:32:00.433Z,10.45
2022-09-23T18:34:32.624Z,10.48
2022-09-23T18:36:59.819Z,10.51
2022-09-23T18:39:29.405Z,10.50
2022-09-23T18:42:05.640Z,10.48
2022-09-23T18:44:34.053Z,10.44
2022-09-23T18:47:01.177Z,10.41
2022-09-23T18:49:46.890Z,10.44
2022-09-23T18:52:24.285Z,10.50
2022-09-23T18:54:55.046Z,10.50
2022-09-23T18:57:54.700Z,10.48
2022-09-23T19:00:21.748Z,10.45
2022-09-23T19:02:54.505Z,10.40
2022-09-23T19:05:22.125Z,10.43
2022-09-23T19:07:49.413Z,10.49
2022-09-23T19:10:56.096Z,10.52
2022-09-23T19:13:37.099Z,10.51
2022-09-23T19:16:10.072Z,10.48
2022-09-23T19:18:38.704Z,10.46
2022-09-23T19:21:10.958Z,10.48
2022-09-23T19:23:38.520Z,10.54
2022-09-23T19:26:10.609Z,10.55
2022-09-23T19:28:37.932Z,10.54
2022-09-23T19:31:22.486Z,10.50
2022-09-23T19:33:57.532Z,10.45
2022-09-23T19:36:32.562Z,10.40
2022-09-23T19:39:03.065Z,10.40
2022-09-23T19:41:32.387Z,10.43
2022-09-23T19:44:03.584Z,10.42
2022-09-23T19:46:31.262Z,10.38
2022-09-23T19:48:58.856Z,10.34
2022-09-23T19:51:26.206Z,10.29
2022-09-23T19:53:53.604Z,10.23
2022-09-23T19:56:20.608Z,10.24
2022-09-23T19:58:51.350Z,10.27
2022-09-23T20:01:18.667Z,10.27
2022-09-23T20:03:47.199Z,10.25
2022-09-23T20:06:15.147Z,10.21
2022-09-23T20:08:42.295Z,10.17
2022-09-23T20:11:27.653Z,10.12
2022-09-23T20:14:06.546Z,10.14
2022-09-23T20:16:37.397Z,10.19
2022-09-23T20:19:05.785Z,10.21
2022-09-23T20:21:33.957Z,10.20
2022-09-23T20:24:01.632Z,10.16
2022-09-23T20:26:47.642Z,10.11
2022-09-23T20:29:14.688Z,10.11
2022-09-23T20:31:41.923Z,10.10
2022-09-23T20:34:10.727Z,10.06
2022-09-23T20:36:39.370Z,9.98
2022-09-23T20:39:06.659Z,9.89
2022-09-23T20:41:37.440Z,9.78
2022-09-23T20:47:14.208Z,9.58
2022-09-23T20:49:43.785Z,9.56
2022-09-23T20:52:15.459Z,9.49
2022-09-23T20:54:42.827Z,9.39
2022-09-23T20:57:14.310Z,9.29
2022-09-23T20:59:41.406Z,9.20
2022-09-23T21:02:08.638Z,9.12
2022-09-23T21:04:35.808Z,9.10
2022-09-23T21:07:05.828Z,9.11
2022-09-23T21:09:32.901Z,9.11
2022-09-23T21:11:59.925Z,9.07
2022-09-23T21:14:26.986Z,9.03
2022-09-23T21:16:55.250Z,8.98
2022-09-23T21:19:23.018Z,8.98
2022-09-23T21:21:50.155Z,9.01
2022-09-23T21:24:45.688Z,9.02
2022-09-23T21:27:04.756Z,8.97
2022-09-23T21:29:31.775Z,8.92
2022-09-23T21:31:58.785Z,8.87
2022-09-23T21:34:28.434Z,8.87
2022-09-23T21:36:55.631Z,8.90
2022-09-23T21:39:24.997Z,8.91
2022-09-23T21:41:54.593Z,8.88
2022-09-23T21:44:21.740Z,8.84
2022-09-23T21:46:49.051Z,8.80
2022-09-23T21:49:16.162Z,8.74
2022-09-23T21:51:43.201Z,8.75
2022-09-23T21:54:15.851Z,8.78
2022-09-23T21:56:48.105Z,8.79
2022-09-23T21:59:15.184Z,8.78
2022-09-23T22:02:40.224Z,8.76
2022-09-23T22:05:07.851Z,8.73
2022-09-23T22:07:40.732Z,8.80
2022-09-23T22:10:08.418Z,8.89
2022-09-23T22:12:35.647Z,8.93
2022-09-23T22:15:02.696Z,8.95
2022-09-23T22:17:31.177Z,8.94
2022-09-23T22:19:58.835Z,8.94
2022-09-23T22:22:25.818Z,9.00
2022-09-23T22:24:52.834Z,9.07
2022-09-23T22:27:20.516Z,9.10
2022-09-23T22:30:06.708Z,9.11
2022-09-23T22:32:43.799Z,9.10
2022-09-23T22:35:12.400Z,9.10
2022-09-23T22:37:39.502Z,9.15
2022-09-23T22:40:08.493Z,9.22
2022-09-23T22:42:36.770Z,9.25
2022-09-23T22:45:06.034Z,9.25
2022-09-23T22:47:39.768Z,9.23
2022-09-23T22:50:08.560Z,9.21
2022-09-23T22:52:35.819Z,9.26
2022-09-23T22:55:03.986Z,9.33
2022-09-23T22:57:31.649Z,9.36
2022-09-23T22:59:58.803Z,9.39
2022-09-23T23:02:25.947Z,9.38
2022-09-23T23:04:53.573Z,9.36
2022-09-23T23:07:21.618Z,9.32
2022-09-23T23:09:52.519Z,9.34
2022-09-23T23:12:20.549Z,9.39
2022-09-23T23:14:48.594Z,9.41
2022-09-23T23:17:15.704Z,9.39
2022-09-23T23:19:42.751Z,9.35
2022-09-23T23:22:09.796Z,9.32
2022-09-23T23:24:36.768Z,9.29
2022-09-23T23:27:03.995Z,9.30
2022-09-23T23:29:31.142Z,9.33
2022-09-23T23:31:58.118Z,9.32
2022-09-23T23:34:25.455Z,9.28
2022-09-23T23:36:55.259Z,9.22
2022-09-23T23:39:26.375Z,9.15
2022-09-23T23:41:55.186Z,9.06
2022-09-23T23:44:24.027Z,9.03
2022-09-23T23:46:51.404Z,9.02
2022-09-23T23:49:23.446Z,8.98
2022-09-23T23:51:50.659Z,8.91
2022-09-23T23:54:17.815Z,8.84
2022-09-23T23:56:44.955Z,8.76
2022-09-23T23:59:12.241Z,8.67
